sensor_id;sensor_type;location;lat;lon;timestamp;temperature;humidity
20463;DHT22;10390;53.566;9.980;2023-05-10T00:01:11;25.90;1.00
20463;DHT22;10390;53.566;9.980;2023-05-10T00:03:37;25.90;1.00
20463;DHT22;10390;53.566;9.980;2023-05-10T00:06:02;25.90;1.00
20463;DHT22;10390;53.566;9.980;2023-05-10T00:08:28;26.00;1.00
20463;DHT22;10390;53.566;9.980;2023-05-10T00:10:54;26.00;1.00
20463;DHT22;10390;53.566;9.980;2023-05-10T00:13:19;25.90;1.00
20463;DHT22;10390;53.566;9.980;2023-05-10T00:15:45;25.90;1.00
20463;DHT22;10390;53.566;9.980;2023-05-10T00:18:10;25.90;1.00
20463;DHT22;10390;53.566;9.980;2023-05-10T00:20:36;25.90;1.00
20463;DHT22;10390;53.566;9.980;2023-05-10T00:23:02;25.90;1.00
20463;DHT22;10390;53.566;9.980;2023-05-10T00:25:27;25.90;1.00
20463;DHT22;10390;53.566;9.980;2023-05-10T00:27:53;25.90;1.00
20463;DHT22;10390;53.566;9.980;2023-05-10T00:30:20;25.90;1.00
20463;DHT22;10390;53.566;9.980;2023-05-10T00:32:46;25.90;1.00
20463;DHT22;10390;53.566;9.980;2023-05-10T00:35:13;25.90;1.00
20463;DHT22;10390;53.566;9.980;2023-05-10T00:37:39;25.90;1.00
20463;DHT22;10390;53.566;9.980;2023-05-10T00:40:05;25.90;1.00
20463;DHT22;10390;53.566;9.980;2023-05-10T00:42:31;25.80;1.00
20463;DHT22;10390;53.566;9.980;2023-05-10T00:44:57;25.80;1.00
20463;DHT22;10390;53.566;9.980;2023-05-10T00:47:23;25.80;1.00
20463;DHT22;10390;53.566;9.980;2023-05-10T00:49:48;25.90;1.00
20463;DHT22;10390;53.566;9.980;2023-05-10T00:52:16;25.80;1.00
20463;DHT22;10390;53.566;9.980;2023-05-10T00:54:41;25.80;1.00
20463;DHT22;10390;53.566;9.980;2023-05-10T00:57:07;25.80;1.00
20463;DHT22;10390;53.566;9.980;2023-05-10T00:59:33;25.80;1.00
20463;DHT22;10390;53.566;9.980;2023-05-10T01:01:59;25.80;1.00
20463;DHT22;10390;53.566;9.980;2023-05-10T01:04:24;25.80;1.00
20463;DHT22;10390;53.566;9.980;2023-05-10T01:06:53;25.80;1.00
20463;DHT22;10390;53.566;9.980;2023-05-10T01:09:20;25.80;1.00
20463;DHT22;10390;53.566;9.980;2023-05-10T01:11:46;25.80;1.00
20463;DHT22;10390;53.566;9.980;2023-05-10T01:14:12;25.70;1.00
20463;DHT22;10390;53.566;9.980;2023-05-10T01:16:40;25.80;1.00
20463;DHT22;10390;53.566;9.980;2023-05-10T01:19:16;25.80;1.00
20463;DHT22;10390;53.566;9.980;2023-05-10T01:21:53;25.80;1.00
20463;DHT22;10390;53.566;9.980;2023-05-10T01:24:59;25.70;1.00
20463;DHT22;10390;53.566;9.980;2023-05-10T01:27:51;25.70;1.00
20463;DHT22;10390;53.566;9.980;2023-05-10T01:33:28;25.70;1.00
20463;DHT22;10390;53.566;9.980;2023-05-10T01:36:05;25.60;1.00
20463;DHT22;10390;53.566;9.980;2023-05-10T01:38:51;25.70;1.00
20463;DHT22;10390;53.566;9.980;2023-05-10T01:41:52;25.70;1.00
20463;DHT22;10390;53.566;9.980;2023-05-10T01:44:20;25.70;1.00
20463;DHT22;10390;53.566;9.980;2023-05-10T01:46:57;25.70;1.00
20463;DHT22;10390;53.566;9.980;2023-05-10T01:49:30;25.70;1.00
20463;DHT22;10390;53.566;9.980;2023-05-10T01:52:00;25.70;1.00
20463;DHT22;10390;53.566;9.980;2023-05-10T01:54:29;25.60;1.00
20463;DHT22;10390;53.566;9.980;2023-05-10T01:57:01;25.60;1.00
20463;DHT22;10390;53.566;9.980;2023-05-10T01:59:31;25.60;1.00
20463;DHT22;10390;53.566;9.980;2023-05-10T02:02:02;25.60;1.00
20463;DHT22;10390;53.566;9.980;2023-05-10T02:04:30;25.60;1.00
20463;DHT22;10390;53.566;9.980;2023-05-10T02:06:56;25.60;1.00
20463;DHT22;10390;53.566;9.980;2023-05-10T02:09:24;25.60;1.00
20463;DHT22;10390;53.566;9.980;2023-05-10T02:11:51;25.60;1.00
20463;DHT22;10390;53.566;9.980;2023-05-10T02:14:18;25.60;1.00
20463;DHT22;10390;53.566;9.980;2023-05-10T02:16:45;25.60;1.00
20463;DHT22;10390;53.566;9.980;2023-05-10T02:19:11;25.60;1.00
20463;DHT22;10390;53.566;9.980;2023-05-10T02:21:39;25.60;1.00
20463;DHT22;10390;53.566;9.980;2023-05-10T02:24:06;25.60;1.00
20463;DHT22;10390;53.566;9.980;2023-05-10T02:26:34;25.50;1.00
20463;DHT22;10390;53.566;9.980;2023-05-10T02:29:02;25.50;1.00
20463;DHT22;10390;53.566;9.980;2023-05-10T02:31:33;25.50;1.00
20463;DHT22;10390;53.566;9.980;2023-05-10T02:34:00;25.60;1.00
20463;DHT22;10390;53.566;9.980;2023-05-10T02:36:27;25.60;1.00
20463;DHT22;10390;53.566;9.980;2023-05-10T02:38:53;25.60;1.00
20463;DHT22;10390;53.566;9.980;2023-05-10T02:41:20;25.60;1.00
20463;DHT22;10390;53.566;9.980;2023-05-10T02:43:50;25.50;1.00
20463;DHT22;10390;53.566;9.980;2023-05-10T02:46:17;25.50;1.00
20463;DHT22;10390;53.566;9.980;2023-05-10T02:48:43;25.50;1.00
20463;DHT22;10390;53.566;9.980;2023-05-10T02:51:09;25.50;1.00
20463;DHT22;10390;53.566;9.980;2023-05-10T02:53:38;25.50;1.00
20463;DHT22;10390;53.566;9.980;2023-05-10T02:56:13;25.50;1.00
20463;DHT22;10390;53.566;9.980;2023-05-10T02:58:39;25.50;1.00
20463;DHT22;10390;53.566;9.980;2023-05-10T03:01:05;25.50;1.00
20463;DHT22;10390;53.566;9.980;2023-05-10T03:03:32;25.50;1.00
20463;DHT22;10390;53.566;9.980;2023-05-10T03:05:58;25.50;1.00
20463;DHT22;10390;53.566;9.980;2023-05-10T03:08:24;25.50;1.00
20463;DHT22;10390;53.566;9.980;2023-05-10T03:11:19;25.50;1.00
20463;DHT22;10390;53.566;9.980;2023-05-10T03:13:59;25.40;1.00
20463;DHT22;10390;53.566;9.980;2023-05-10T03:16:42;25.50;1.00
20463;DHT22;10390;53.566;9.980;2023-05-10T03:19:32;25.40;1.00
20463;DHT22;10390;53.566;9.980;2023-05-10T03:21:59;25.40;1.00
20463;DHT22;10390;53.566;9.980;2023-05-10T03:24:30;25.50;1.00
20463;DHT22;10390;53.566;9.980;2023-05-10T03:26:57;25.40;1.00
20463;DHT22;10390;53.566;9.980;2023-05-10T03:29:25;25.40;1.00
20463;DHT22;10390;53.566;9.980;2023-05-10T03:31:51;25.40;1.00
20463;DHT22;10390;53.566;9.980;2023-05-10T03:34:23;25.40;1.00
20463;DHT22;10390;53.566;9.980;2023-05-10T03:36:49;25.40;1.00
20463;DHT22;10390;53.566;9.980;2023-05-10T03:39:14;25.40;1.00
20463;DHT22;10390;53.566;9.980;2023-05-10T03:41:40;25.40;1.00
20463;DHT22;10390;53.566;9.980;2023-05-10T03:44:05;25.30;1.00
20463;DHT22;10390;53.566;9.980;2023-05-10T03:46:31;25.30;1.00
20463;DHT22;10390;53.566;9.980;2023-05-10T03:48:57;25.40;1.00
20463;DHT22;10390;53.566;9.980;2023-05-10T03:51:22;25.40;1.00
20463;DHT22;10390;53.566;9.980;2023-05-10T03:53:48;25.30;1.00
20463;DHT22;10390;53.566;9.980;2023-05-10T03:56:13;25.40;1.00
20463;DHT22;10390;53.566;9.980;2023-05-10T03:58:39;25.30;1.00
20463;DHT22;10390;53.566;9.980;2023-05-10T04:01:04;25.30;1.00
20463;DHT22;10390;53.566;9.980;2023-05-10T04:03:30;25.30;1.00
20463;DHT22;10390;53.566;9.980;2023-05-10T04:06:02;25.40;1.00
20463;DHT22;10390;53.566;9.980;2023-05-10T04:08:28;25.30;1.00
20463;DHT22;10390;53.566;9.980;2023-05-10T04:10:54;25.30;1.00
20463;DHT22;10390;53.566;9.980;2023-05-10T04:13:19;25.30;1.00
20463;DHT22;10390;53.566;9.980;2023-05-10T04:15:45;25.30;1.00
20463;DHT22;10390;53.566;9.980;2023-05-10T04:18:11;25.30;1.00
20463;DHT22;10390;53.566;9.980;2023-05-10T04:20:37;25.30;1.00
20463;DHT22;10390;53.566;9.980;2023-05-10T04:23:02;25.30;1.00
20463;DHT22;10390;53.566;9.980;2023-05-10T04:25:28;25.30;1.00
20463;DHT22;10390;53.566;9.980;2023-05-10T04:27:53;25.30;1.00
20463;DHT22;10390;53.566;9.980;2023-05-10T04:30:19;25.30;1.00
20463;DHT22;10390;53.566;9.980;2023-05-10T04:32:45;25.30;1.00
20463;DHT22;10390;53.566;9.980;2023-05-10T04:35:10;25.30;1.00
20463;DHT22;10390;53.566;9.980;2023-05-10T04:37:36;25.30;1.00
20463;DHT22;10390;53.566;9.980;2023-05-10T04:40:02;25.30;1.00
20463;DHT22;10390;53.566;9.980;2023-05-10T04:42:28;25.30;1.00
20463;DHT22;10390;53.566;9.980;2023-05-10T04:44:54;25.30;1.00
20463;DHT22;10390;53.566;9.980;2023-05-10T04:47:20;25.30;1.00
20463;DHT22;10390;53.566;9.980;2023-05-10T04:49:45;25.30;1.00
20463;DHT22;10390;53.566;9.980;2023-05-10T04:52:11;25.30;1.00
20463;DHT22;10390;53.566;9.980;2023-05-10T04:54:36;25.30;1.00
20463;DHT22;10390;53.566;9.980;2023-05-10T04:57:02;25.30;1.00
20463;DHT22;10390;53.566;9.980;2023-05-10T04:59:28;25.30;1.00
20463;DHT22;10390;53.566;9.980;2023-05-10T05:01:53;25.30;1.00
20463;DHT22;10390;53.566;9.980;2023-05-10T05:04:19;25.30;1.00
20463;DHT22;10390;53.566;9.980;2023-05-10T05:06:44;25.30;1.00
20463;DHT22;10390;53.566;9.980;2023-05-10T05:09:10;25.30;1.00
20463;DHT22;10390;53.566;9.980;2023-05-10T05:11:35;25.30;1.00
20463;DHT22;10390;53.566;9.980;2023-05-10T05:14:01;25.30;1.00
20463;DHT22;10390;53.566;9.980;2023-05-10T05:16:27;25.30;1.00
20463;DHT22;10390;53.566;9.980;2023-05-10T05:18:52;25.30;1.00
20463;DHT22;10390;53.566;9.980;2023-05-10T05:21:19;25.40;1.00
20463;DHT22;10390;53.566;9.980;2023-05-10T05:23:45;25.40;1.00
20463;DHT22;10390;53.566;9.980;2023-05-10T05:26:11;25.40;1.00
20463;DHT22;10390;53.566;9.980;2023-05-10T05:28:37;25.40;1.00
20463;DHT22;10390;53.566;9.980;2023-05-10T05:31:09;25.40;1.00
20463;DHT22;10390;53.566;9.980;2023-05-10T05:33:34;25.40;1.00
20463;DHT22;10390;53.566;9.980;2023-05-10T05:36:01;25.50;1.00
20463;DHT22;10390;53.566;9.980;2023-05-10T05:38:27;25.40;1.00
20463;DHT22;10390;53.566;9.980;2023-05-10T05:40:52;25.50;1.00
20463;DHT22;10390;53.566;9.980;2023-05-10T05:43:18;25.50;1.00
20463;DHT22;10390;53.566;9.980;2023-05-10T05:45:43;25.50;1.00
20463;DHT22;10390;53.566;9.980;2023-05-10T05:48:09;25.50;1.00
20463;DHT22;10390;53.566;9.980;2023-05-10T05:50:35;25.50;1.00
20463;DHT22;10390;53.566;9.980;2023-05-10T05:53:00;25.60;1.00
20463;DHT22;10390;53.566;9.980;2023-05-10T05:55:26;25.60;1.00
20463;DHT22;10390;53.566;9.980;2023-05-10T05:57:52;25.60;1.00
20463;DHT22;10390;53.566;9.980;2023-05-10T06:00:17;25.70;1.00
20463;DHT22;10390;53.566;9.980;2023-05-10T06:02:43;25.70;1.00
20463;DHT22;10390;53.566;9.980;2023-05-10T06:05:09;25.70;1.00
20463;DHT22;10390;53.566;9.980;2023-05-10T06:07:34;25.70;1.00
20463;DHT22;10390;53.566;9.980;2023-05-10T06:10:00;25.80;1.00
20463;DHT22;10390;53.566;9.980;2023-05-10T06:12:26;25.80;1.00
20463;DHT22;10390;53.566;9.980;2023-05-10T06:14:52;25.80;1.00
20463;DHT22;10390;53.566;9.980;2023-05-10T06:17:17;25.90;1.00
20463;DHT22;10390;53.566;9.980;2023-05-10T06:19:43;25.90;1.00
20463;DHT22;10390;53.566;9.980;2023-05-10T06:22:09;25.90;1.00
20463;DHT22;10390;53.566;9.980;2023-05-10T06:24:34;25.90;1.00
20463;DHT22;10390;53.566;9.980;2023-05-10T06:27:00;25.90;1.00
20463;DHT22;10390;53.566;9.980;2023-05-10T06:29:26;26.00;1.00
20463;DHT22;10390;53.566;9.980;2023-05-10T06:31:51;25.90;1.00
20463;DHT22;10390;53.566;9.980;2023-05-10T06:34:17;26.00;1.00
20463;DHT22;10390;53.566;9.980;2023-05-10T06:36:43;26.00;1.00
20463;DHT22;10390;53.566;9.980;2023-05-10T06:39:08;26.00;1.00
20463;DHT22;10390;53.566;9.980;2023-05-10T06:41:34;26.00;1.00
20463;DHT22;10390;53.566;9.980;2023-05-10T06:44:03;26.00;1.00
20463;DHT22;10390;53.566;9.980;2023-05-10T06:46:29;26.10;1.00
20463;DHT22;10390;53.566;9.980;2023-05-10T06:48:55;26.00;1.00
20463;DHT22;10390;53.566;9.980;2023-05-10T06:51:26;26.00;1.00
20463;DHT22;10390;53.566;9.980;2023-05-10T06:53:54;26.00;1.00
20463;DHT22;10390;53.566;9.980;2023-05-10T06:56:22;26.00;1.00
20463;DHT22;10390;53.566;9.980;2023-05-10T06:58:48;26.00;1.00
20463;DHT22;10390;53.566;9.980;2023-05-10T07:01:14;26.10;1.00
20463;DHT22;10390;53.566;9.980;2023-05-10T07:03:43;26.10;1.00
20463;DHT22;10390;53.566;9.980;2023-05-10T07:06:08;26.00;1.00
20463;DHT22;10390;53.566;9.980;2023-05-10T07:08:39;26.10;1.00
20463;DHT22;10390;53.566;9.980;2023-05-10T07:11:06;26.10;1.00
20463;DHT22;10390;53.566;9.980;2023-05-10T07:13:35;26.10;1.00
20463;DHT22;10390;53.566;9.980;2023-05-10T07:16:09;26.10;1.00
20463;DHT22;10390;53.566;9.980;2023-05-10T07:18:37;26.10;1.00
20463;DHT22;10390;53.566;9.980;2023-05-10T07:21:08;26.10;1.00
20463;DHT22;10390;53.566;9.980;2023-05-10T07:23:33;26.10;1.00
20463;DHT22;10390;53.566;9.980;2023-05-10T07:26:02;26.20;1.00
20463;DHT22;10390;53.566;9.980;2023-05-10T07:28:32;26.20;1.00
20463;DHT22;10390;53.566;9.980;2023-05-10T07:31:00;26.20;1.00
20463;DHT22;10390;53.566;9.980;2023-05-10T07:33:26;26.20;1.00
20463;DHT22;10390;53.566;9.980;2023-05-10T07:36:00;26.20;1.00
20463;DHT22;10390;53.566;9.980;2023-05-10T07:38:28;26.20;1.00
20463;DHT22;10390;53.566;9.980;2023-05-10T07:40:57;26.20;1.00
20463;DHT22;10390;53.566;9.980;2023-05-10T07:43:25;26.20;1.00
20463;DHT22;10390;53.566;9.980;2023-05-10T07:45:51;26.20;1.00
20463;DHT22;10390;53.566;9.980;2023-05-10T07:48:19;26.20;1.00
20463;DHT22;10390;53.566;9.980;2023-05-10T07:50:45;26.30;1.00
20463;DHT22;10390;53.566;9.980;2023-05-10T07:53:11;26.30;1.00
20463;DHT22;10390;53.566;9.980;2023-05-10T07:55:36;26.30;1.00
20463;DHT22;10390;53.566;9.980;2023-05-10T07:58:02;26.30;1.00
20463;DHT22;10390;53.566;9.980;2023-05-10T08:00:27;26.30;1.00
20463;DHT22;10390;53.566;9.980;2023-05-10T08:02:53;26.30;1.00
20463;DHT22;10390;53.566;9.980;2023-05-10T08:05:19;26.20;1.00
20463;DHT22;10390;53.566;9.980;2023-05-10T08:07:44;26.30;1.00
20463;DHT22;10390;53.566;9.980;2023-05-10T08:10:10;26.30;1.00
20463;DHT22;10390;53.566;9.980;2023-05-10T08:12:39;26.30;1.00
20463;DHT22;10390;53.566;9.980;2023-05-10T08:15:05;26.20;1.00
20463;DHT22;10390;53.566;9.980;2023-05-10T08:17:30;26.30;1.00
20463;DHT22;10390;53.566;9.980;2023-05-10T08:19:56;26.30;1.00
20463;DHT22;10390;53.566;9.980;2023-05-10T08:22:21;26.30;1.00
20463;DHT22;10390;53.566;9.980;2023-05-10T08:24:47;26.20;1.00
20463;DHT22;10390;53.566;9.980;2023-05-10T08:27:13;26.30;1.00
20463;DHT22;10390;53.566;9.980;2023-05-10T08:29:38;26.30;1.00
20463;DHT22;10390;53.566;9.980;2023-05-10T08:32:04;26.30;1.00
20463;DHT22;10390;53.566;9.980;2023-05-10T08:34:30;26.30;1.00
20463;DHT22;10390;53.566;9.980;2023-05-10T08:36:56;26.30;1.00
20463;DHT22;10390;53.566;9.980;2023-05-10T08:39:22;26.20;1.00
20463;DHT22;10390;53.566;9.980;2023-05-10T08:41:51;26.20;1.00
20463;DHT22;10390;53.566;9.980;2023-05-10T08:44:16;26.30;1.00
20463;DHT22;10390;53.566;9.980;2023-05-10T08:46:46;26.20;1.00
20463;DHT22;10390;53.566;9.980;2023-05-10T08:49:17;26.20;1.00
20463;DHT22;10390;53.566;9.980;2023-05-10T08:51:50;26.20;1.00
20463;DHT22;10390;53.566;9.980;2023-05-10T08:54:16;26.20;1.00
20463;DHT22;10390;53.566;9.980;2023-05-10T08:56:42;26.20;1.00
20463;DHT22;10390;53.566;9.980;2023-05-10T08:59:08;26.20;1.00
20463;DHT22;10390;53.566;9.980;2023-05-10T09:01:35;26.20;1.00
20463;DHT22;10390;53.566;9.980;2023-05-10T09:04:02;26.30;1.00
20463;DHT22;10390;53.566;9.980;2023-05-10T09:06:28;26.30;1.00
20463;DHT22;10390;53.566;9.980;2023-05-10T09:08:54;26.20;1.00
20463;DHT22;10390;53.566;9.980;2023-05-10T09:11:20;26.30;1.00
20463;DHT22;10390;53.566;9.980;2023-05-10T09:13:47;26.20;1.00
20463;DHT22;10390;53.566;9.980;2023-05-10T09:16:13;26.20;1.00
20463;DHT22;10390;53.566;9.980;2023-05-10T09:18:38;26.30;1.00
20463;DHT22;10390;53.566;9.980;2023-05-10T09:21:04;26.20;1.00
20463;DHT22;10390;53.566;9.980;2023-05-10T09:23:30;26.20;1.00
20463;DHT22;10390;53.566;9.980;2023-05-10T09:26:07;26.30;1.00
20463;DHT22;10390;53.566;9.980;2023-05-10T09:28:55;26.20;1.00
20463;DHT22;10390;53.566;9.980;2023-05-10T09:31:21;26.20;1.00
20463;DHT22;10390;53.566;9.980;2023-05-10T09:33:48;26.30;1.00
20463;DHT22;10390;53.566;9.980;2023-05-10T09:36:14;26.30;1.00
20463;DHT22;10390;53.566;9.980;2023-05-10T09:38:48;26.20;1.00
20463;DHT22;10390;53.566;9.980;2023-05-10T09:41:22;26.20;1.00
20463;DHT22;10390;53.566;9.980;2023-05-10T09:43:48;26.20;1.00
20463;DHT22;10390;53.566;9.980;2023-05-10T09:46:14;26.20;1.00
20463;DHT22;10390;53.566;9.980;2023-05-10T09:48:43;26.20;1.00
20463;DHT22;10390;53.566;9.980;2023-05-10T09:51:09;26.20;1.00
20463;DHT22;10390;53.566;9.980;2023-05-10T09:53:35;26.20;1.00
20463;DHT22;10390;53.566;9.980;2023-05-10T09:56:00;26.20;1.00
20463;DHT22;10390;53.566;9.980;2023-05-10T09:58:26;26.20;1.00
20463;DHT22;10390;53.566;9.980;2023-05-10T10:00:52;26.20;1.00
20463;DHT22;10390;53.566;9.980;2023-05-10T10:03:20;26.20;1.00
20463;DHT22;10390;53.566;9.980;2023-05-10T10:05:47;26.20;1.00
20463;DHT22;10390;53.566;9.980;2023-05-10T10:08:14;26.20;1.00
20463;DHT22;10390;53.566;9.980;2023-05-10T10:10:40;26.20;1.00
20463;DHT22;10390;53.566;9.980;2023-05-10T10:13:06;26.20;1.00
20463;DHT22;10390;53.566;9.980;2023-05-10T10:15:35;26.20;1.00
20463;DHT22;10390;53.566;9.980;2023-05-10T10:18:01;26.20;1.00
20463;DHT22;10390;53.566;9.980;2023-05-10T10:20:29;26.20;1.00
20463;DHT22;10390;53.566;9.980;2023-05-10T10:22:54;26.20;1.00
20463;DHT22;10390;53.566;9.980;2023-05-10T10:25:21;26.20;1.00
20463;DHT22;10390;53.566;9.980;2023-05-10T10:35:52;26.20;1.00
20463;DHT22;10390;53.566;9.980;2023-05-10T10:38:18;26.20;1.00
20463;DHT22;10390;53.566;9.980;2023-05-10T10:40:44;26.20;1.00
20463;DHT22;10390;53.566;9.980;2023-05-10T10:43:25;26.20;1.00
20463;DHT22;10390;53.566;9.980;2023-05-10T10:48:37;26.20;1.00
20463;DHT22;10390;53.566;9.980;2023-05-10T10:51:03;26.20;1.00
20463;DHT22;10390;53.566;9.980;2023-05-10T10:53:29;26.20;1.00
20463;DHT22;10390;53.566;9.980;2023-05-10T10:56:08;26.20;1.00
20463;DHT22;10390;53.566;9.980;2023-05-10T10:58:35;26.20;1.00
20463;DHT22;10390;53.566;9.980;2023-05-10T11:01:11;26.20;1.00
20463;DHT22;10390;53.566;9.980;2023-05-10T11:03:37;26.10;1.00
20463;DHT22;10390;53.566;9.980;2023-05-10T11:06:03;26.10;1.00
20463;DHT22;10390;53.566;9.980;2023-05-10T11:08:30;26.10;1.00
20463;DHT22;10390;53.566;9.980;2023-05-10T11:13:42;26.20;1.00
20463;DHT22;10390;53.566;9.980;2023-05-10T11:16:22;26.20;1.00
20463;DHT22;10390;53.566;9.980;2023-05-10T11:19:07;26.10;1.00
20463;DHT22;10390;53.566;9.980;2023-05-10T11:21:34;26.20;1.00
20463;DHT22;10390;53.566;9.980;2023-05-10T11:24:00;26.20;1.00
20463;DHT22;10390;53.566;9.980;2023-05-10T11:26:32;26.20;1.00
20463;DHT22;10390;53.566;9.980;2023-05-10T11:28:59;26.10;1.00
20463;DHT22;10390;53.566;9.980;2023-05-10T11:31:27;26.10;1.00
20463;DHT22;10390;53.566;9.980;2023-05-10T11:33:54;26.10;1.00
20463;DHT22;10390;53.566;9.980;2023-05-10T11:36:27;26.10;1.00
20463;DHT22;10390;53.566;9.980;2023-05-10T11:38:53;26.10;1.00
20463;DHT22;10390;53.566;9.980;2023-05-10T11:41:20;26.10;1.00
20463;DHT22;10390;53.566;9.980;2023-05-10T11:43:55;26.10;1.00
20463;DHT22;10390;53.566;9.980;2023-05-10T11:46:23;26.10;1.00
20463;DHT22;10390;53.566;9.980;2023-05-10T11:48:50;26.10;1.00
20463;DHT22;10390;53.566;9.980;2023-05-10T11:51:21;26.10;1.00
20463;DHT22;10390;53.566;9.980;2023-05-10T11:53:48;26.10;1.00
20463;DHT22;10390;53.566;9.980;2023-05-10T11:56:14;26.10;1.00
20463;DHT22;10390;53.566;9.980;2023-05-10T11:58:42;26.10;1.00
20463;DHT22;10390;53.566;9.980;2023-05-10T12:01:08;26.10;1.00
20463;DHT22;10390;53.566;9.980;2023-05-10T12:03:35;26.10;1.00
20463;DHT22;10390;53.566;9.980;2023-05-10T12:06:02;26.10;1.00
20463;DHT22;10390;53.566;9.980;2023-05-10T12:08:29;26.10;1.00
20463;DHT22;10390;53.566;9.980;2023-05-10T12:11:08;26.10;1.00
20463;DHT22;10390;53.566;9.980;2023-05-10T12:13:42;26.20;1.00
20463;DHT22;10390;53.566;9.980;2023-05-10T12:16:23;26.10;1.00
20463;DHT22;10390;53.566;9.980;2023-05-10T12:18:53;26.10;1.00
20463;DHT22;10390;53.566;9.980;2023-05-10T12:21:20;26.10;1.00
20463;DHT22;10390;53.566;9.980;2023-05-10T12:23:46;26.10;1.00
20463;DHT22;10390;53.566;9.980;2023-05-10T12:26:12;26.20;1.00
20463;DHT22;10390;53.566;9.980;2023-05-10T12:28:38;26.20;1.00
20463;DHT22;10390;53.566;9.980;2023-05-10T12:31:08;26.10;1.00
20463;DHT22;10390;53.566;9.980;2023-05-10T12:33:41;26.10;1.00
20463;DHT22;10390;53.566;9.980;2023-05-10T12:36:12;26.20;1.00
20463;DHT22;10390;53.566;9.980;2023-05-10T12:38:39;26.20;1.00
20463;DHT22;10390;53.566;9.980;2023-05-10T12:41:10;26.20;1.00
20463;DHT22;10390;53.566;9.980;2023-05-10T12:43:37;26.20;1.00
20463;DHT22;10390;53.566;9.980;2023-05-10T12:46:07;26.20;1.00
20463;DHT22;10390;53.566;9.980;2023-05-10T12:48:38;26.20;1.00
20463;DHT22;10390;53.566;9.980;2023-05-10T12:51:04;26.20;1.00
20463;DHT22;10390;53.566;9.980;2023-05-10T12:53:30;26.20;1.00
20463;DHT22;10390;53.566;9.980;2023-05-10T12:55:56;26.20;1.00
20463;DHT22;10390;53.566;9.980;2023-05-10T12:58:22;26.20;1.00
20463;DHT22;10390;53.566;9.980;2023-05-10T13:00:48;26.30;1.00
20463;DHT22;10390;53.566;9.980;2023-05-10T13:03:14;26.20;1.00
20463;DHT22;10390;53.566;9.980;2023-05-10T13:05:41;26.30;1.00
20463;DHT22;10390;53.566;9.980;2023-05-10T13:08:06;26.20;1.00
20463;DHT22;10390;53.566;9.980;2023-05-10T13:10:32;26.30;1.00
20463;DHT22;10390;53.566;9.980;2023-05-10T13:12:58;26.30;1.00
20463;DHT22;10390;53.566;9.980;2023-05-10T13:15:27;26.30;1.00
20463;DHT22;10390;53.566;9.980;2023-05-10T13:17:55;26.30;1.00
20463;DHT22;10390;53.566;9.980;2023-05-10T13:20:21;26.30;1.00
20463;DHT22;10390;53.566;9.980;2023-05-10T13:22:46;26.30;1.00
20463;DHT22;10390;53.566;9.980;2023-05-10T13:25:12;26.30;1.00
20463;DHT22;10390;53.566;9.980;2023-05-10T13:27:39;26.30;1.00
20463;DHT22;10390;53.566;9.980;2023-05-10T13:30:07;26.30;1.00
20463;DHT22;10390;53.566;9.980;2023-05-10T13:32:33;26.30;1.00
20463;DHT22;10390;53.566;9.980;2023-05-10T13:34:59;26.30;1.00
20463;DHT22;10390;53.566;9.980;2023-05-10T13:37:24;26.30;1.00
20463;DHT22;10390;53.566;9.980;2023-05-10T13:39:50;26.30;1.00
20463;DHT22;10390;53.566;9.980;2023-05-10T13:42:17;26.30;1.00
20463;DHT22;10390;53.566;9.980;2023-05-10T13:44:43;26.30;1.00
20463;DHT22;10390;53.566;9.980;2023-05-10T13:47:09;26.30;1.00
20463;DHT22;10390;53.566;9.980;2023-05-10T13:49:35;26.30;1.00
20463;DHT22;10390;53.566;9.980;2023-05-10T13:52:01;26.30;1.00
20463;DHT22;10390;53.566;9.980;2023-05-10T13:54:32;26.30;1.00
20463;DHT22;10390;53.566;9.980;2023-05-10T13:56:58;26.40;1.00
20463;DHT22;10390;53.566;9.980;2023-05-10T13:59:24;26.40;1.00
20463;DHT22;10390;53.566;9.980;2023-05-10T14:01:50;26.30;1.00
20463;DHT22;10390;53.566;9.980;2023-05-10T14:04:15;26.30;1.00
20463;DHT22;10390;53.566;9.980;2023-05-10T14:06:41;26.40;1.00
20463;DHT22;10390;53.566;9.980;2023-05-10T14:09:06;26.30;1.00
20463;DHT22;10390;53.566;9.980;2023-05-10T14:11:32;26.30;1.00
20463;DHT22;10390;53.566;9.980;2023-05-10T14:13:58;26.30;1.00
20463;DHT22;10390;53.566;9.980;2023-05-10T14:16:24;26.30;1.00
20463;DHT22;10390;53.566;9.980;2023-05-10T14:18:49;26.30;1.00
20463;DHT22;10390;53.566;9.980;2023-05-10T14:21:15;26.30;1.00
20463;DHT22;10390;53.566;9.980;2023-05-10T14:23:40;26.30;1.00
20463;DHT22;10390;53.566;9.980;2023-05-10T14:26:06;26.30;1.00
20463;DHT22;10390;53.566;9.980;2023-05-10T14:28:32;26.30;1.00
20463;DHT22;10390;53.566;9.980;2023-05-10T14:30:58;26.30;1.00
20463;DHT22;10390;53.566;9.980;2023-05-10T14:33:24;26.30;1.00
20463;DHT22;10390;53.566;9.980;2023-05-10T14:35:50;26.30;1.00
20463;DHT22;10390;53.566;9.980;2023-05-10T14:38:16;26.30;1.00
20463;DHT22;10390;53.566;9.980;2023-05-10T14:40:41;26.40;1.00
20463;DHT22;10390;53.566;9.980;2023-05-10T14:43:08;26.30;1.00
20463;DHT22;10390;53.566;9.980;2023-05-10T14:45:33;26.30;1.00
20463;DHT22;10390;53.566;9.980;2023-05-10T14:48:00;26.30;1.00
20463;DHT22;10390;53.566;9.980;2023-05-10T14:50:25;26.30;1.00
20463;DHT22;10390;53.566;9.980;2023-05-10T14:52:51;26.30;1.00
20463;DHT22;10390;53.566;9.980;2023-05-10T14:55:17;26.30;1.00
20463;DHT22;10390;53.566;9.980;2023-05-10T14:57:43;26.30;1.00
20463;DHT22;10390;53.566;9.980;2023-05-10T15:00:10;26.30;1.00
20463;DHT22;10390;53.566;9.980;2023-05-10T15:02:35;26.30;1.00
20463;DHT22;10390;53.566;9.980;2023-05-10T15:05:01;26.30;1.00
20463;DHT22;10390;53.566;9.980;2023-05-10T15:07:27;26.30;1.00
20463;DHT22;10390;53.566;9.980;2023-05-10T15:09:53;26.30;1.00
20463;DHT22;10390;53.566;9.980;2023-05-10T15:12:19;26.30;1.00
20463;DHT22;10390;53.566;9.980;2023-05-10T15:14:46;26.30;1.00
20463;DHT22;10390;53.566;9.980;2023-05-10T15:17:11;26.30;1.00
20463;DHT22;10390;53.566;9.980;2023-05-10T15:19:37;26.30;1.00
20463;DHT22;10390;53.566;9.980;2023-05-10T15:22:04;26.30;1.00
20463;DHT22;10390;53.566;9.980;2023-05-10T15:24:30;26.30;1.00
20463;DHT22;10390;53.566;9.980;2023-05-10T15:26:56;26.30;1.00
20463;DHT22;10390;53.566;9.980;2023-05-10T15:29:21;26.30;1.00
20463;DHT22;10390;53.566;9.980;2023-05-10T15:31:48;26.30;1.00
20463;DHT22;10390;53.566;9.980;2023-05-10T15:34:14;26.20;1.00
20463;DHT22;10390;53.566;9.980;2023-05-10T15:36:40;26.30;1.00
20463;DHT22;10390;53.566;9.980;2023-05-10T15:39:05;26.30;1.00
20463;DHT22;10390;53.566;9.980;2023-05-10T15:41:31;26.30;1.00
20463;DHT22;10390;53.566;9.980;2023-05-10T15:43:57;26.30;1.00
20463;DHT22;10390;53.566;9.980;2023-05-10T15:46:25;26.20;1.00
20463;DHT22;10390;53.566;9.980;2023-05-10T15:48:51;26.30;1.00
20463;DHT22;10390;53.566;9.980;2023-05-10T15:51:17;26.20;1.00
20463;DHT22;10390;53.566;9.980;2023-05-10T15:53:44;26.30;1.00
20463;DHT22;10390;53.566;9.980;2023-05-10T15:56:10;26.20;1.00
20463;DHT22;10390;53.566;9.980;2023-05-10T15:58:37;26.20;1.00
20463;DHT22;10390;53.566;9.980;2023-05-10T16:01:03;26.20;1.00
20463;DHT22;10390;53.566;9.980;2023-05-10T16:03:30;26.20;1.00